Time;durP1;ratioP1;P1;durP2;ratioP2;P2;SDS_P1;SDS_P2;PMS_P1;PMS_P2;Temp;Humidity;BMP_temperature;BMP_pressure;BME280_temperature;BME280_humidity;BME280_pressure;Samples;Min_cycle;Max_cycle;Signal;HPM_P1;HPM_P2
2022/07/26 00:03:15;;;;;;;6.53;2.25;;;;;;;15.25;81.89;101191.91;10367335;28;20042;-74
2022/07/26 00:08:16;;;;;;;3.78;1.50;;;;;;;15.08;82.44;101193.97;10388297;28;20034;-75
2022/07/26 00:13:18;;;;;;;5.13;2.13;;;;;;;14.94;83.89;101198.78;10383759;28;20391;-73
2022/07/26 00:18:19;;;;;;;7.95;3.13;;;;;;;14.87;84.13;101200.28;10370619;28;20068;-74
2022/07/26 00:23:19;;;;;;;3.45;2.05;;;;;;;14.71;85.29;101200.56;10335539;28;20117;-74
2022/07/26 00:28:20;;;;;;;6.57;2.17;;;;;;;14.52;86.06;101198.16;10359279;28;20153;-75
2022/07/26 00:33:20;;;;;;;7.18;2.28;;;;;;;14.48;86.96;101204.16;10365828;28;20099;-74
2022/07/26 00:38:21;;;;;;;7.63;2.20;;;;;;;14.38;87.95;101207.28;10387231;28;20061;-74
2022/07/26 00:43:21;;;;;;;7.07;2.78;;;;;;;14.37;88.74;101198.47;10395939;28;20040;-75
2022/07/26 00:48:22;;;;;;;14.48;3.08;;;;;;;14.48;88.83;101201.50;10391573;28;20147;-74
2022/07/26 00:53:23;;;;;;;7.13;2.42;;;;;;;14.54;87.99;101203.47;10347338;28;20492;-74
2022/07/26 00:58:23;;;;;;;6.63;2.42;;;;;;;14.56;87.31;101193.88;10370258;28;20437;-74
2022/07/26 01:03:24;;;;;;;4.93;1.83;;;;;;;14.71;86.64;101197.94;10365163;28;20030;-74
2022/07/26 01:08:24;;;;;;;11.48;5.13;;;;;;;14.74;86.51;101195.41;10377973;28;20051;-73
2022/07/26 01:13:25;;;;;;;10.07;2.65;;;;;;;14.72;86.55;101200.66;10385619;28;20048;-75
2022/07/26 01:18:25;;;;;;;12.90;5.47;;;;;;;14.70;86.96;101189.16;10368205;28;20041;-74
2022/07/26 01:23:26;;;;;;;6.90;2.30;;;;;;;14.80;86.80;101201.81;10385809;28;20034;-74
2022/07/26 01:28:26;;;;;;;5.07;2.25;;;;;;;15.02;86.31;101189.41;10340328;28;20065;-74
2022/07/26 01:33:27;;;;;;;6.68;2.28;;;;;;;15.20;85.45;101186.47;10374227;28;20030;-75
2022/07/26 01:38:27;;;;;;;8.05;2.22;;;;;;;15.24;84.93;101177.81;10374340;28;20523;-74
2022/07/26 01:43:28;;;;;;;8.82;2.47;;;;;;;15.02;85.55;101173.56;10403863;28;20132;-74
2022/07/26 01:48:29;;;;;;;6.03;2.60;;;;;;;14.90;86.28;101179.31;10379288;28;20120;-74
2022/07/26 01:53:29;;;;;;;14.35;2.40;;;;;;;14.82;86.79;101183.41;10385323;28;20038;-74
2022/07/26 01:58:30;;;;;;;7.88;2.40;;;;;;;14.81;86.95;101184.25;10385225;28;20112;-74
2022/07/26 02:03:30;;;;;;;7.43;2.55;;;;;;;14.72;87.52;101183.94;10402728;28;20038;-74
2022/07/26 02:08:31;;;;;;;5.22;2.03;;;;;;;14.69;88.10;101184.69;10387903;28;20097;-74
2022/07/26 02:13:37;;;;;;;9.00;2.55;;;;;;;14.80;88.15;101201.81;10343213;28;20052;-74
2022/07/26 02:18:39;;;;;;;7.03;2.28;;;;;;;14.95;87.44;101200.56;10333085;28;20065;-74
2022/07/26 02:23:39;;;;;;;7.00;2.38;;;;;;;15.14;86.07;101196.81;10335103;28;20038;-74
2022/07/26 02:28:40;;;;;;;5.82;2.92;;;;;;;15.24;85.58;101193.66;10369022;28;20033;-74
2022/07/26 02:33:41;;;;;;;6.38;2.42;;;;;;;15.33;84.92;101197.44;10361537;28;20030;-74
2022/07/26 02:38:41;;;;;;;8.10;3.58;;;;;;;15.35;85.04;101201.03;10371359;28;20047;-74
2022/07/26 02:43:42;;;;;;;5.22;2.35;;;;;;;15.35;84.99;101207.19;10361264;28;20477;-74
2022/07/26 02:48:42;;;;;;;17.35;4.97;;;;;;;15.41;84.78;101215.31;10389979;28;20041;-73
2022/07/26 02:53:46;;;;;;;5.47;2.40;;;;;;;15.38;84.76;101209.03;10386112;28;20061;-74
2022/07/26 02:58:46;;;;;;;9.07;3.03;;;;;;;15.39;85.62;101211.75;10382894;28;20048;-74
2022/07/26 03:03:47;;;;;;;42.47;22.60;;;;;;;15.44;85.52;101211.00;10358956;28;20041;-74
2022/07/26 03:08:47;;;;;;;23.55;10.63;;;;;;;15.52;84.82;101220.06;10360998;28;20048;-74
2022/07/26 03:13:48;;;;;;;10.23;3.83;;;;;;;15.51;85.00;101224.41;10361865;28;20494;-74
2022/07/26 03:18:48;;;;;;;9.68;2.88;;;;;;;15.45;85.30;101231.25;10372169;28;20430;-74
2022/07/26 03:23:49;;;;;;;6.50;2.95;;;;;;;15.40;85.69;101233.72;10359045;28;20099;-75
2022/07/26 03:28:49;;;;;;;8.52;3.95;;;;;;;15.39;85.85;101234.56;10349035;28;20417;-76
2022/07/26 03:33:50;;;;;;;10.57;3.58;;;;;;;15.44;85.74;101238.25;10376707;28;20069;-75
2022/07/26 03:38:50;;;;;;;12.98;4.07;;;;;;;15.44;85.90;101240.88;10379526;28;20232;-76
2022/07/26 03:43:51;;;;;;;20.15;4.78;;;;;;;15.38;86.51;101246.88;10383826;28;20034;-77
2022/07/26 03:48:51;;;;;;;13.25;5.43;;;;;;;15.42;86.82;101247.84;10391335;28;20573;-79
2022/07/26 03:53:52;;;;;;;14.15;4.70;;;;;;;15.40;87.21;101254.81;10380247;28;20033;-78
2022/07/26 03:58:53;;;;;;;11.50;3.42;;;;;;;15.41;87.16;101249.59;10390330;28;20878;-76
2022/07/26 04:03:53;;;;;;;12.52;3.13;;;;;;;15.41;87.50;101260.16;10366370;28;20053;-77
2022/07/26 04:08:54;;;;;;;10.82;3.28;;;;;;;15.47;86.94;101262.09;10397546;28;20037;-78
2022/07/26 04:13:55;;;;;;;10.38;4.50;;;;;;;15.45;87.03;101269.06;10388197;28;20084;-77
2022/07/26 04:18:56;;;;;;;15.85;4.18;;;;;;;15.40;87.83;101271.56;10372240;28;20049;-77
2022/07/26 04:23:58;;;;;;;9.32;3.97;;;;;;;15.39;87.90;101277.66;10345634;28;20613;-76
2022/07/26 04:28:58;;;;;;;8.25;3.10;;;;;;;15.45;87.93;101274.31;10387030;28;20107;-77
2022/07/26 04:34:00;;;;;;;12.20;3.90;;;;;;;15.53;87.57;101282.53;10344401;28;20037;-75
2022/07/26 04:39:01;;;;;;;13.23;3.72;;;;;;;15.57;87.33;101289.69;10369198;28;20578;-76
2022/07/26 04:44:01;;;;;;;13.73;4.90;;;;;;;15.57;87.48;101280.03;10403728;28;20033;-78
2022/07/26 04:49:02;;;;;;;11.70;3.28;;;;;;;15.52;87.77;101281.59;10402345;28;20038;-78
2022/07/26 04:54:02;;;;;;;13.55;3.88;;;;;;;15.53;88.03;101282.53;10386777;28;20044;-77
2022/07/26 04:59:03;;;;;;;11.63;3.90;;;;;;;15.51;88.55;101287.72;10384612;28;20041;-78
2022/07/26 05:04:04;;;;;;;10.52;3.72;;;;;;;15.58;88.65;101294.13;10404652;28;20052;-78
2022/07/26 05:09:05;;;;;;;11.00;5.50;;;;;;;15.61;88.80;101290.69;10397016;28;20057;-76
2022/07/26 05:14:05;;;;;;;21.20;8.82;;;;;;;15.64;88.74;101289.06;10362394;28;20185;-75
2022/07/26 05:19:06;;;;;;;16.42;6.18;;;;;;;15.71;88.27;101285.78;10367082;28;20489;-77
2022/07/26 05:24:06;;;;;;;11.27;4.57;;;;;;;15.81;88.57;101297.50;10402533;28;20052;-76
2022/07/26 05:29:07;;;;;;;11.75;4.38;;;;;;;15.86;88.10;101297.69;10367840;28;20048;-76
2022/07/26 05:34:07;;;;;;;17.08;5.57;;;;;;;15.91;88.25;101295.22;10402704;28;20034;-77
2022/07/26 05:39:08;;;;;;;16.98;5.72;;;;;;;15.93;88.23;101301.44;10388453;28;20128;-76
2022/07/26 05:44:08;;;;;;;11.60;5.10;;;;;;;16.03;88.30;101302.66;10401827;28;20065;-76
2022/07/26 05:49:09;;;;;;;11.00;4.10;;;;;;;16.21;87.44;101299.69;10396194;28;20038;-78
2022/07/26 05:54:10;;;;;;;14.40;5.80;;;;;;;16.36;86.74;101308.06;10377679;28;20069;-77
2022/07/26 05:59:10;;;;;;;13.48;3.40;;;;;;;16.49;85.93;101305.81;10377120;28;20554;-78
2022/07/26 06:04:11;;;;;;;10.20;5.47;;;;;;;16.53;86.41;101308.59;10343978;28;20049;-78
2022/07/26 06:09:12;;;;;;;12.15;4.78;;;;;;;16.67;86.06;101313.41;10364900;28;20049;-76
2022/07/26 06:14:12;;;;;;;12.25;4.60;;;;;;;16.86;85.13;101320.13;10401064;28;20056;-78
2022/07/26 06:19:13;;;;;;;11.07;4.15;;;;;;;17.06;84.85;101323.38;10377429;28;20041;-78
2022/07/26 06:24:13;;;;;;;12.50;5.18;;;;;;;17.29;84.42;101326.66;10360467;28;20036;-77
2022/07/26 06:29:14;;;;;;;13.98;4.82;;;;;;;17.68;83.48;101340.91;10343631;28;20070;-77
2022/07/26 06:34:15;;;;;;;12.40;4.53;;;;;;;17.98;81.53;101344.28;10341962;28;20554;-78
2022/07/26 06:39:15;;;;;;;19.35;5.43;;;;;;;18.11;80.33;101349.06;10335557;28;20125;-78
2022/07/26 06:44:16;;;;;;;15.88;4.50;;;;;;;18.37;79.92;101345.25;10399719;28;20053;-77
2022/07/26 06:49:16;;;;;;;8.93;3.85;;;;;;;18.84;77.56;101350.72;10372585;28;20129;-75
2022/07/26 06:54:17;;;;;;;17.58;4.72;;;;;;;20.12;73.55;101350.47;10359181;28;20034;-75
2022/07/26 06:59:17;;;;;;;16.60;3.47;;;;;;;22.03;65.71;101348.34;10367657;28;20049;-75
2022/07/26 07:04:18;;;;;;;11.20;4.73;;;;;;;22.08;64.58;101351.94;10400025;28;20053;-75
2022/07/26 07:09:18;;;;;;;14.50;3.77;;;;;;;22.65;63.79;101358.53;10391316;28;20132;-75
2022/07/26 07:14:19;;;;;;;9.33;3.97;;;;;;;24.18;58.33;101350.91;10341949;28;20091;-77
2022/07/26 07:19:19;;;;;;;10.20;3.83;;;;;;;23.24;58.77;101354.38;10370768;28;20041;-77
2022/07/26 07:24:20;;;;;;;12.20;5.17;;;;;;;23.10;60.18;101359.63;10340760;28;20052;-77
2022/07/26 07:29:21;;;;;;;25.23;5.40;;;;;;;22.82;61.48;101367.50;10358539;28;20095;-76
2022/07/26 07:34:21;;;;;;;6.47;3.90;;;;;;;22.71;60.84;101364.81;10325904;28;20445;-76
2022/07/26 07:39:22;;;;;;;12.40;5.43;;;;;;;23.63;59.26;101375.81;10332170;28;20517;-75
2022/07/26 07:44:22;;;;;;;14.73;3.80;;;;;;;25.21;55.00;101363.97;10348076;28;20397;-75
2022/07/26 07:49:23;;;;;;;13.67;3.63;;;;;;;23.95;55.98;101366.03;10366098;28;20066;-76
2022/07/26 07:54:23;;;;;;;10.73;4.00;;;;;;;24.39;55.55;101365.13;10348114;28;20496;-76
2022/07/26 07:59:24;;;;;;;8.20;3.33;;;;;;;24.14;56.37;101367.84;10347253;28;20564;-77
2022/07/26 08:04:24;;;;;;;7.80;3.20;;;;;;;25.29;52.61;101361.25;10351426;28;20042;-77
2022/07/26 08:09:25;;;;;;;13.43;3.67;;;;;;;23.85;54.53;101370.47;10348936;28;20038;-76
2022/07/26 08:14:25;;;;;;;10.07;4.27;;;;;;;22.17;59.08;101384.88;10360429;28;20059;-77
2022/07/26 08:19:26;;;;;;;9.53;3.90;;;;;;;22.61;59.92;101375.41;10385493;28;20048;-76
2022/07/26 08:24:26;;;;;;;7.47;3.33;;;;;;;24.48;52.63;101374.91;10404412;28;20041;-75
2022/07/26 08:29:27;;;;;;;6.27;2.87;;;;;;;24.08;54.75;101373.19;10387945;28;20112;-76
2022/07/26 08:34:27;;;;;;;11.10;4.80;;;;;;;24.37;53.20;101376.72;10382745;28;20091;-76
2022/07/26 08:39:28;;;;;;;11.80;3.50;;;;;;;22.82;55.77;101387.97;10371291;28;20076;-76
2022/07/26 08:44:29;;;;;;;9.53;3.43;;;;;;;21.33;60.36;101386.69;10385557;28;20402;-76
2022/07/26 08:49:29;;;;;;;6.23;3.27;;;;;;;20.96;62.44;101387.13;10345878;28;20061;-76
2022/07/26 08:54:30;;;;;;;6.20;3.30;;;;;;;24.89;53.57;101381.09;10345091;28;20041;-76
2022/07/26 08:59:30;;;;;;;4.83;2.27;;;;;;;25.44;48.13;101384.38;10349723;28;20045;-75
2022/07/26 09:04:36;;;;;;;3.47;2.37;;;;;;;24.54;49.46;101390.06;10373691;28;20091;-76
2022/07/26 09:09:55;;;;;;;6.32;2.47;;;;;;;26.44;45.14;101396.16;10351477;28;20577;-76
2022/07/26 09:14:56;;;;;;;7.63;3.45;;;;;;;29.19;39.76;101386.50;10330917;28;20045;-76
2022/07/26 09:20:14;;;;;;;8.63;2.83;;;;;;;29.58;38.70;101396.44;10369868;28;20490;-77
2022/07/26 09:25:20;;;;;;;5.70;2.22;;;;;;;27.36;40.60;101398.66;10353007;28;20482;-75
2022/07/26 09:30:20;;;;;;;16.05;2.67;;;;;;;24.63;46.41;101403.44;10345228;28;20443;-74
2022/07/26 09:35:21;;;;;;;7.13;2.13;;;;;;;26.31;43.47;101398.06;10359830;28;20051;-75
2022/07/26 09:40:21;;;;;;;5.10;2.43;;;;;;;26.37;42.47;101405.16;10401466;28;20395;-77
2022/07/26 09:45:22;;;;;;;2.77;1.90;;;;;;;25.00;48.29;101419.41;10371804;28;20378;-76
2022/07/26 09:50:30;;;;;;;6.20;2.37;;;;;;;26.63;43.85;101407.56;10367778;28;20038;-76
2022/07/26 09:55:31;;;;;;;3.88;1.95;;;;;;;28.58;40.92;101406.59;10336615;28;20386;-76
2022/07/26 10:00:32;;;;;;;5.05;2.13;;;;;;;28.55;39.02;101419.19;10353662;28;20041;-77
2022/07/26 10:05:33;;;;;;;6.60;2.22;;;;;;;24.59;49.66;101431.09;10360506;28;20092;-77
2022/07/26 10:10:54;;;;;;;4.43;2.20;;;;;;;22.44;56.04;101441.09;10359875;28;20102;-76
2022/07/26 10:15:55;;;;;;;6.15;1.95;;;;;;;22.19;58.19;101442.63;10345396;28;20494;-74
2022/07/26 10:20:56;;;;;;;5.43;2.40;;;;;;;26.10;46.73;101434.00;10338283;28;20180;-75
2022/07/26 10:25:56;;;;;;;10.70;1.90;;;;;;;25.87;47.86;101437.75;10319368;28;20230;-75
2022/07/26 10:31:22;;;;;;;4.80;1.97;;;;;;;23.90;53.22;101448.88;10332796;28;20125;-76
2022/07/26 10:36:23;;;;;;;5.13;2.05;;;;;;;23.57;53.25;101461.28;10303930;28;20038;-75
2022/07/26 10:41:31;;;;;;;4.35;1.90;;;;;;;22.94;52.97;101461.84;10318650;28;20026;-75
2022/07/26 10:46:32;;;;;;;2.85;1.80;;;;;;;22.36;54.83;101463.19;10302819;28;20174;-76
2022/07/26 10:51:37;;;;;;;3.87;2.60;;;;;;;22.50;56.47;101466.03;10319334;28;20042;-77
2022/07/26 10:56:38;;;;;;;2.28;1.55;;;;;;;25.72;48.75;101456.59;10302366;28;20038;-76
2022/07/26 11:01:40;;;;;;;2.57;1.37;;;;;;;27.35;44.61;101455.09;10303675;28;20043;-77
2022/07/26 11:06:40;;;;;;;5.78;1.70;;;;;;;26.49;44.64;101456.03;10319379;28;20038;-77
2022/07/26 11:11:41;;;;;;;4.70;2.33;;;;;;;26.18;47.83;101456.31;10335397;28;20063;-77
2022/07/26 11:16:46;;;;;;;6.17;2.10;;;;;;;25.55;50.18;101449.56;10365267;28;20065;-76
2022/07/26 11:21:57;;;;;;;4.38;1.70;;;;;;;27.09;43.67;101456.31;10358325;28;20042;-76
2022/07/26 11:27:01;;;;;;;3.17;1.65;;;;;;;27.18;42.10;101453.53;10345043;28;20045;-76
2022/07/26 11:32:03;;;;;;;6.25;2.75;;;;;;;28.87;42.36;101447.34;10329953;28;20128;-76
2022/07/26 11:37:04;;;;;;;3.00;1.73;;;;;;;28.53;40.01;101450.63;10314652;28;20038;-77
2022/07/26 11:42:10;;;;;;;2.80;1.43;;;;;;;28.01;43.90;101474.78;10310811;28;20041;-76
2022/07/26 11:47:15;;;;;;;3.97;1.42;;;;;;;28.32;42.89;101473.47;10343822;28;20061;-76
2022/07/26 11:52:16;;;;;;;1.95;1.23;;;;;;;29.92;39.95;101472.97;10349371;28;20034;-76
2022/07/26 11:57:17;;;;;;;4.60;1.27;;;;;;;28.05;42.90;101481.03;10333383;28;20050;-76
2022/07/26 12:02:19;;;;;;;4.38;2.33;;;;;;;27.89;42.10;101483.97;10370631;28;20519;-75
2022/07/26 12:07:20;;;;;;;3.85;2.00;;;;;;;26.74;44.66;101490.69;10339005;28;20053;-76
2022/07/26 12:12:23;;;;;;;12.38;2.20;;;;;;;26.15;47.23;101487.63;10360291;28;20038;-76
2022/07/26 12:17:24;;;;;;;4.85;2.35;;;;;;;26.97;47.05;101487.78;10357974;28;20029;-77
2022/07/26 12:22:24;;;;;;;5.33;2.07;;;;;;;27.25;44.54;101503.59;10349819;28;20507;-76
2022/07/26 12:27:29;;;;;;;4.57;1.80;;;;;;;26.90;43.95;101510.25;10403091;28;20120;-77
2022/07/26 12:32:34;;;;;;;3.03;1.75;;;;;;;25.91;45.03;101501.16;10365778;28;20060;-76
2022/07/26 12:37:56;;;;;;;4.28;2.10;;;;;;;25.65;46.72;101496.84;10363198;28;20132;-78
2022/07/26 12:42:57;;;;;;;3.53;1.58;;;;;;;28.23;42.42;101498.69;10381120;28;20456;-77
2022/07/26 12:47:59;;;;;;;2.17;0.98;;;;;;;28.97;40.03;101488.47;10355993;28;20545;-76
2022/07/26 12:53:07;;;;;;;2.55;0.98;;;;;;;29.38;39.29;101496.59;10364459;28;20045;-77
2022/07/26 12:58:08;;;;;;;2.70;1.20;;;;;;;27.67;41.04;101502.19;10366638;28;20099;-75
2022/07/26 13:03:09;;;;;;;4.18;1.13;;;;;;;26.10;45.90;101506.41;10346721;28;20046;-76
2022/07/26 13:08:09;;;;;;;3.90;1.00;;;;;;;25.62;47.64;101514.72;10375437;28;20501;-76
2022/07/26 13:13:10;;;;;;;2.90;1.37;;;;;;;24.19;51.94;101536.28;10383667;28;20048;-75
2022/07/26 13:18:11;;;;;;;6.10;1.63;;;;;;;23.95;51.18;101523.75;10391596;28;20053;-76
2022/07/26 13:23:11;;;;;;;3.47;1.90;;;;;;;24.59;51.14;101528.28;10384766;28;20096;-76
2022/07/26 13:28:12;;;;;;;2.93;0.90;;;;;;;24.97;51.76;101526.53;10352424;28;20125;-76
2022/07/26 13:33:13;;;;;;;10.07;1.70;;;;;;;27.40;45.81;101526.72;10360782;28;20062;-76
2022/07/26 13:38:13;;;;;;;2.60;1.37;;;;;;;28.69;43.18;101524.84;10360054;28;20114;-76
2022/07/26 13:43:14;;;;;;;3.77;1.40;;;;;;;28.63;43.30;101521.38;10360096;28;20042;-76
2022/07/26 13:48:14;;;;;;;2.60;1.40;;;;;;;27.10;44.83;101527.94;10356973;28;20076;-74
2022/07/26 13:53:15;;;;;;;4.20;1.90;;;;;;;25.59;48.19;101544.22;10372298;28;20042;-75
2022/07/26 13:58:15;;;;;;;3.27;1.33;;;;;;;25.48;49.45;101537.09;10343214;28;20038;-75
2022/07/26 14:03:16;;;;;;;5.40;1.60;;;;;;;24.71;52.21;101547.91;10342267;28;20038;-76
2022/07/26 14:08:16;;;;;;;9.13;2.53;;;;;;;24.14;52.14;101554.09;10380087;28;20073;-73
2022/07/26 14:13:17;;;;;;;3.53;1.90;;;;;;;23.36;55.18;101550.25;10382290;28;20129;-74
2022/07/26 14:18:17;;;;;;;2.80;1.43;;;;;;;22.77;56.79;101557.81;10364692;28;20047;-73
2022/07/26 14:23:18;;;;;;;7.07;2.33;;;;;;;22.46;57.67;101558.44;10357438;28;20072;-74
2022/07/26 14:28:18;;;;;;;7.17;2.53;;;;;;;22.21;57.98;101563.50;10391235;28;20493;-74
2022/07/26 14:33:19;;;;;;;3.60;2.17;;;;;;;22.20;57.99;101571.50;10353174;28;20808;-73
2022/07/26 14:38:19;;;;;;;4.20;1.90;;;;;;;22.21;58.04;101567.94;10361745;28;20095;-74
2022/07/26 14:43:20;;;;;;;5.10;1.67;;;;;;;22.33;57.21;101554.75;10386865;28;20367;-74
2022/07/26 14:48:22;;;;;;;4.33;2.03;;;;;;;22.15;58.31;101569.66;10348419;28;20129;-74
2022/07/26 14:53:23;;;;;;;4.95;2.33;;;;;;;21.77;58.64;101574.53;10365351;28;20407;-74
2022/07/26 14:58:30;;;;;;;4.53;2.30;;;;;;;21.64;60.96;101576.16;10370034;28;20041;-74
2022/07/26 15:03:35;;;;;;;2.03;1.15;;;;;;;21.71;57.12;101570.91;10330520;28;20041;-74
2022/07/26 15:08:37;;;;;;;5.57;1.80;;;;;;;21.75;59.11;101581.63;10398219;28;20466;-73
2022/07/26 15:13:42;;;;;;;5.70;1.80;;;;;;;21.86;59.00;101590.63;10377947;28;20045;-74
2022/07/26 15:18:45;;;;;;;2.97;1.73;;;;;;;21.32;59.12;101584.56;10351460;28;20493;-74
2022/07/26 15:23:54;;;;;;;3.58;1.98;;;;;;;21.08;61.63;101576.22;10390198;28;20386;-74
2022/07/26 15:28:58;;;;;;;4.85;1.95;;;;;;;20.89;61.76;101583.03;10378154;28;20021;-74
2022/07/26 15:34:02;;;;;;;6.07;2.35;;;;;;;20.90;63.48;101582.16;10363471;28;20121;-72
2022/07/26 15:39:06;;;;;;;15.77;2.55;;;;;;;20.62;63.75;101591.41;10381789;28;20037;-74
2022/07/26 15:44:08;;;;;;;3.88;1.58;;;;;;;20.37;64.99;101590.94;10355623;28;20107;-74
2022/07/26 15:49:12;;;;;;;5.75;1.85;;;;;;;19.67;67.15;101593.06;10309078;28;20132;-74
2022/07/26 15:54:14;;;;;;;4.15;2.40;;;;;;;19.52;68.48;101595.41;10344917;28;20049;-74
2022/07/26 15:59:16;;;;;;;5.32;1.63;;;;;;;20.00;68.04;101592.88;10373288;28;20037;-73
2022/07/26 16:04:17;;;;;;;10.65;2.10;;;;;;;20.89;63.34;101591.03;10371708;28;20111;-74
2022/07/26 16:09:18;;;;;;;3.28;1.60;;;;;;;21.21;59.45;101584.41;10402416;28;20053;-73
2022/07/26 16:14:19;;;;;;;4.00;1.38;;;;;;;20.62;62.51;101600.28;10378705;28;20048;-74
2022/07/26 16:19:20;;;;;;;5.50;1.98;;;;;;;19.88;65.56;101601.50;10375827;28;20133;-74
2022/07/26 16:24:24;;;;;;;3.50;2.22;;;;;;;19.47;67.47;101603.28;10371703;28;20052;-74
2022/07/26 16:29:27;;;;;;;5.45;2.58;;;;;;;19.08;69.06;101593.53;10369422;28;20137;-73
2022/07/26 16:34:31;;;;;;;6.25;2.85;;;;;;;18.97;71.63;101587.94;10356262;28;20400;-74
2022/07/26 16:39:33;;;;;;;7.75;2.97;;;;;;;18.94;72.06;101582.53;10403277;28;20030;-74
2022/07/26 16:44:36;;;;;;;6.15;3.33;;;;;;;18.48;73.72;101588.44;10347705;28;20095;-76
2022/07/26 16:49:37;;;;;;;2.87;2.30;;;;;;;17.90;77.07;101593.00;10338092;28;20041;-74
2022/07/26 16:54:39;;;;;;;8.05;3.60;;;;;;;18.11;79.24;101599.81;10351220;28;20038;-76
2022/07/26 16:59:40;;;;;;;7.20;3.10;;;;;;;18.45;76.08;101601.63;10380581;28;20041;-74
2022/07/26 17:04:40;;;;;;;6.65;3.58;;;;;;;18.52;75.32;101605.34;10351531;28;20054;-75
2022/07/26 17:09:41;;;;;;;4.60;2.65;;;;;;;18.40;76.34;101615.63;10410018;28;20238;-75
2022/07/26 17:14:41;;;;;;;6.57;2.65;;;;;;;18.46;74.93;101600.75;10384444;28;20082;-75
2022/07/26 17:19:42;;;;;;;6.40;3.28;;;;;;;18.20;75.61;101611.53;10398488;28;20045;-75
2022/07/26 17:24:42;;;;;;;7.50;4.38;;;;;;;18.15;78.26;101612.28;10415445;28;20044;-74
2022/07/26 17:29:43;;;;;;;7.38;5.55;;;;;;;18.52;75.86;101607.09;10395075;28;20029;-75
2022/07/26 17:34:44;;;;;;;6.68;3.95;;;;;;;18.34;76.52;101611.94;10417993;28;20128;-74
2022/07/26 17:39:44;;;;;;;6.85;4.10;;;;;;;18.18;76.31;101610.59;10409915;28;20124;-73
2022/07/26 17:44:45;;;;;;;11.18;4.60;;;;;;;17.86;78.45;101618.47;10379985;28;20041;-73
2022/07/26 17:49:46;;;;;;;12.25;4.85;;;;;;;17.61;79.57;101616.88;10399783;28;20124;-73
2022/07/26 17:54:46;;;;;;;6.05;3.75;;;;;;;17.44;80.41;101622.53;10399454;28;20042;-73
2022/07/26 17:59:49;;;;;;;7.28;4.78;;;;;;;17.29;81.63;101622.94;10397288;28;20137;-73
2022/07/26 18:04:51;;;;;;;8.85;4.50;;;;;;;17.37;81.60;101623.19;10383487;28;20045;-73
2022/07/26 18:09:52;;;;;;;;;;;;;;;17.24;82.41;101615.72;10380415;28;20126;-73
2022/07/26 18:14:53;;;;;;;9.90;5.53;;;;;;;17.12;83.67;101630.34;10381221;28;20063;-73
2022/07/26 18:19:53;;;;;;;9.98;5.97;;;;;;;17.05;84.25;101622.13;10380244;28;20136;-75
2022/07/26 18:24:54;;;;;;;10.13;5.50;;;;;;;16.93;84.17;101623.47;10398084;28;20044;-74
2022/07/26 18:29:55;;;;;;;8.65;5.32;;;;;;;16.83;84.19;101614.38;10380032;28;20125;-74
2022/07/26 18:34:55;;;;;;;9.63;5.65;;;;;;;16.76;85.92;101619.38;10361197;28;20845;-74
2022/07/26 18:39:58;;;;;;;12.20;7.78;;;;;;;16.75;86.67;101615.84;10382621;28;20033;-75
2022/07/26 18:44:59;;;;;;;14.40;5.88;;;;;;;16.77;86.69;101613.25;10383900;28;20073;-75
2022/07/26 18:50:00;;;;;;;15.40;6.75;;;;;;;16.74;86.72;101622.84;10411374;28;20052;-75
2022/07/26 18:55:01;;;;;;;9.05;6.07;;;;;;;16.69;86.32;101620.91;10398816;28;20048;-75
2022/07/26 19:00:25;;;;;;;10.23;6.78;;;;;;;16.58;87.72;101618.81;10377355;28;20045;-75
2022/07/26 19:05:26;;;;;;;14.15;8.52;;;;;;;16.53;88.08;101624.75;10394149;28;20044;-76
2022/07/26 19:10:27;;;;;;;8.57;5.60;;;;;;;16.45;88.73;101621.84;10398538;28;20065;-75
2022/07/26 19:15:28;;;;;;;11.38;7.60;;;;;;;16.38;89.47;101623.38;10377864;28;20061;-75
2022/07/26 19:20:29;;;;;;;14.20;6.90;;;;;;;16.33;90.02;101624.94;10380678;28;20132;-76
2022/07/26 19:25:29;;;;;;;9.82;6.30;;;;;;;16.33;86.93;101632.88;10415916;28;20053;-75
2022/07/26 19:30:31;;;;;;;9.50;5.28;;;;;;;16.23;85.90;101644.84;10381161;28;20037;-75
2022/07/26 19:35:32;;;;;;;11.30;6.05;;;;;;;16.11;85.53;101641.75;10370444;28;20382;-75
2022/07/26 19:40:34;;;;;;;6.43;2.92;;;;;;;16.02;82.67;101639.66;10406807;28;20087;-75
2022/07/26 19:45:34;;;;;;;6.03;2.53;;;;;;;15.91;77.44;101659.47;10366480;28;20067;-75
2022/07/26 19:50:35;;;;;;;5.68;2.22;;;;;;;15.64;77.37;101669.00;10403701;28;20113;-75
2022/07/26 19:55:37;;;;;;;10.20;2.20;;;;;;;15.75;73.12;101671.16;10403589;28;20431;-74
2022/07/26 20:00:37;;;;;;;7.72;1.73;;;;;;;15.78;73.31;101676.56;10355707;28;20042;-75
2022/07/26 20:05:38;;;;;;;7.80;2.92;;;;;;;15.82;72.04;101687.28;10387864;28;20053;-75
2022/07/26 20:10:38;;;;;;;4.97;1.65;;;;;;;15.93;70.51;101697.38;10386800;28;20124;-74
2022/07/26 20:15:39;;;;;;;10.15;1.88;;;;;;;15.89;70.80;101709.59;10403381;28;20056;-74
2022/07/26 20:20:39;;;;;;;7.25;1.80;;;;;;;15.85;70.71;101715.53;10341075;28;20504;-76
2022/07/26 20:25:40;;;;;;;6.25;1.95;;;;;;;15.91;69.49;101701.72;10400705;28;20029;-75
2022/07/26 20:30:41;;;;;;;4.85;2.10;;;;;;;15.90;69.34;101710.47;10377962;28;20029;-74
2022/07/26 20:35:41;;;;;;;3.92;1.48;;;;;;;15.81;69.09;101701.31;10370680;28;20116;-75
2022/07/26 20:40:42;;;;;;;6.65;2.33;;;;;;;15.67;69.17;101703.41;10403144;28;20061;-75
2022/07/26 20:45:42;;;;;;;6.68;1.70;;;;;;;15.63;69.39;101716.41;10384524;28;20041;-75
2022/07/26 20:50:43;;;;;;;5.40;1.67;;;;;;;15.50;70.12;101715.91;10404154;28;20033;-75
2022/07/26 20:55:43;;;;;;;5.03;1.83;;;;;;;15.27;71.52;101728.16;10369620;28;20033;-76
2022/07/26 21:00:44;;;;;;;7.63;2.45;;;;;;;15.18;71.97;101726.03;10402944;28;20501;-76
2022/07/26 21:05:44;;;;;;;6.95;1.63;;;;;;;15.05;72.25;101740.44;10387067;28;20041;-76
2022/07/26 21:10:46;;;;;;;4.82;2.08;;;;;;;15.04;71.42;101748.25;10370114;28;20373;-75
2022/07/26 21:15:48;;;;;;;5.15;1.55;;;;;;;14.96;71.36;101746.19;10401581;28;20057;-75
2022/07/26 21:20:49;;;;;;;6.60;1.63;;;;;;;14.96;71.40;101751.47;10385417;28;20038;-75
2022/07/26 21:25:49;;;;;;;9.25;2.20;;;;;;;14.77;71.44;101749.75;10401515;28;20041;-75
2022/07/26 21:30:50;;;;;;;7.60;2.38;;;;;;;14.46;73.29;101757.97;10384478;28;20458;-75
2022/07/26 21:35:50;;;;;;;6.40;1.73;;;;;;;14.18;74.70;101765.50;10371814;28;20497;-75
2022/07/26 21:40:51;;;;;;;7.53;2.50;;;;;;;14.05;76.34;101777.16;10364970;28;20033;-75
2022/07/26 21:45:51;;;;;;;9.70;3.55;;;;;;;14.04;76.52;101780.63;10352378;28;20052;-75
2022/07/26 21:50:52;;;;;;;6.13;3.00;;;;;;;14.05;76.10;101777.16;10382037;28;20033;-75
2022/07/26 21:55:52;;;;;;;5.72;1.88;;;;;;;14.15;75.36;101778.50;10399741;28;20048;-75
2022/07/26 22:01:02;;;;;;;6.78;2.42;;;;;;;14.37;73.04;101771.63;10402029;28;20531;-75
2022/07/26 22:06:02;;;;;;;5.28;1.80;;;;;;;14.40;73.76;101782.28;10382485;28;20445;-75
2022/07/26 22:11:03;;;;;;;6.43;1.85;;;;;;;14.37;74.51;101779.53;10380231;28;20090;-76
2022/07/26 22:16:04;;;;;;;5.68;1.88;;;;;;;14.44;73.63;101785.97;10364855;28;20124;-75
2022/07/26 22:21:05;;;;;;;6.17;2.53;;;;;;;14.43;73.09;101778.88;10367013;28;20037;-76
2022/07/26 22:26:05;;;;;;;5.80;2.67;;;;;;;14.33;73.62;101783.72;10364580;28;20809;-76
2022/07/26 22:31:06;;;;;;;7.13;2.13;;;;;;;14.22;73.93;101780.59;10382108;28;20080;-76
2022/07/26 22:36:07;;;;;;;4.72;1.80;;;;;;;14.14;73.89;101781.06;10399315;28;20045;-75
2022/07/26 22:41:08;;;;;;;9.38;2.83;;;;;;;14.04;74.95;101787.63;10380822;28;20041;-75
2022/07/26 22:46:08;;;;;;;8.27;2.85;;;;;;;14.19;73.32;101780.47;10367129;28;20066;-76
2022/07/26 22:51:09;;;;;;;11.50;2.28;;;;;;;14.36;73.30;101783.88;10364590;28;20485;-75
2022/07/26 22:56:09;;;;;;;5.10;1.52;;;;;;;14.39;72.91;101776.13;10381316;28;20480;-76
2022/07/26 23:01:10;;;;;;;7.05;2.00;;;;;;;14.39;73.30;101784.00;10399130;28;20069;-75